Main page
METAR-TAF:

METAR-TAF

Airports :

Plzeň, Czech Republic

latitude: 49-40-31N, longitude: 13-16-29E, elevation: 362 m

Current weather observation

The report was made 18 minutes ago, at 20:00 UTC
Wind 2 kt from the North/Northeast
Temperature -1°C
Humidity 93%
Pressure 1022 hPa
Visibility 10 km or more
Few clouds at a height of 2500 ft
Scattered clouds at a height of 2900 ft
Broken clouds at a height of 5700 ft

METAR: LKLN 122000Z AUTO 02002KT 9999 FEW025 SCT029 BKN057 M01/M02 Q1022

Time: 21:18 (20:18 UTC)


TAF: missing

Weather observations and forecasts of more than 4000 airports (METAR and TAF reports).

The available stations are represented by yellow and red dots on the map.

Hover mouse over dot to see the name of the station.

Then click to see weather observations and forecasts.

To change the map : click on the green buttons with a black cross to zoom in, on the green button with a dash to zoom out, or on the green arrows for adjacent maps.


METAR-TAF: